sensor_id;sensor_type;location;lat;lon;timestamp;P1;durP1;ratioP1;P2;durP2;ratioP2
15913;SDS011;8055;51.930;8.840;2023-05-21T00:02:12;11.27;;;9.32;;
15913;SDS011;8055;51.930;8.840;2023-05-21T00:04:40;12.80;;;10.20;;
15913;SDS011;8055;51.930;8.840;2023-05-21T00:07:05;11.70;;;9.85;;
15913;SDS011;8055;51.930;8.840;2023-05-21T00:09:32;13.05;;;9.88;;
15913;SDS011;8055;51.930;8.840;2023-05-21T00:11:58;13.00;;;10.32;;
15913;SDS011;8055;51.930;8.840;2023-05-21T00:14:24;12.38;;;10.07;;
15913;SDS011;8055;51.930;8.840;2023-05-21T00:16:49;13.40;;;10.27;;
15913;SDS011;8055;51.930;8.840;2023-05-21T00:19:15;13.35;;;10.25;;
15913;SDS011;8055;51.930;8.840;2023-05-21T00:21:40;14.55;;;11.25;;
15913;SDS011;8055;51.930;8.840;2023-05-21T00:24:06;11.45;;;9.98;;
15913;SDS011;8055;51.930;8.840;2023-05-21T00:26:31;12.73;;;10.07;;
15913;SDS011;8055;51.930;8.840;2023-05-21T00:28:57;12.05;;;10.00;;
15913;SDS011;8055;51.930;8.840;2023-05-21T00:31:22;13.20;;;10.27;;
15913;SDS011;8055;51.930;8.840;2023-05-21T00:33:47;12.65;;;10.32;;
15913;SDS011;8055;51.930;8.840;2023-05-21T00:36:13;13.70;;;10.27;;
15913;SDS011;8055;51.930;8.840;2023-05-21T00:38:39;13.65;;;10.07;;
15913;SDS011;8055;51.930;8.840;2023-05-21T00:41:08;12.15;;;9.93;;
15913;SDS011;8055;51.930;8.840;2023-05-21T00:43:34;16.38;;;10.63;;
15913;SDS011;8055;51.930;8.840;2023-05-21T00:45:59;12.10;;;10.80;;
15913;SDS011;8055;51.930;8.840;2023-05-21T00:48:25;12.45;;;10.70;;
15913;SDS011;8055;51.930;8.840;2023-05-21T00:50:51;14.88;;;10.95;;
15913;SDS011;8055;51.930;8.840;2023-05-21T00:53:17;16.38;;;11.45;;
15913;SDS011;8055;51.930;8.840;2023-05-21T00:55:43;14.00;;;11.52;;
15913;SDS011;8055;51.930;8.840;2023-05-21T00:58:10;14.57;;;11.05;;
15913;SDS011;8055;51.930;8.840;2023-05-21T01:00:36;14.18;;;11.38;;
15913;SDS011;8055;51.930;8.840;2023-05-21T01:03:07;14.90;;;11.70;;
15913;SDS011;8055;51.930;8.840;2023-05-21T01:05:33;14.60;;;10.70;;
15913;SDS011;8055;51.930;8.840;2023-05-21T01:07:58;14.95;;;11.52;;
15913;SDS011;8055;51.930;8.840;2023-05-21T01:10:24;13.05;;;11.10;;
15913;SDS011;8055;51.930;8.840;2023-05-21T01:12:51;15.30;;;12.40;;
15913;SDS011;8055;51.930;8.840;2023-05-21T01:15:19;16.23;;;12.20;;
15913;SDS011;8055;51.930;8.840;2023-05-21T01:17:44;13.95;;;10.90;;
15913;SDS011;8055;51.930;8.840;2023-05-21T01:20:10;13.18;;;11.10;;
15913;SDS011;8055;51.930;8.840;2023-05-21T01:22:54;14.63;;;11.20;;
15913;SDS011;8055;51.930;8.840;2023-05-21T01:25:21;14.68;;;12.15;;
15913;SDS011;8055;51.930;8.840;2023-05-21T01:27:48;14.35;;;11.35;;
15913;SDS011;8055;51.930;8.840;2023-05-21T01:30:14;14.98;;;11.85;;
15913;SDS011;8055;51.930;8.840;2023-05-21T01:32:47;14.10;;;11.65;;
15913;SDS011;8055;51.930;8.840;2023-05-21T01:35:23;13.68;;;11.55;;
15913;SDS011;8055;51.930;8.840;2023-05-21T01:37:53;15.98;;;10.88;;
15913;SDS011;8055;51.930;8.840;2023-05-21T01:40:38;13.55;;;12.15;;
15913;SDS011;8055;51.930;8.840;2023-05-21T01:43:11;15.23;;;12.05;;
15913;SDS011;8055;51.930;8.840;2023-05-21T01:45:38;15.10;;;11.45;;
15913;SDS011;8055;51.930;8.840;2023-05-21T01:48:06;15.07;;;11.98;;
15913;SDS011;8055;51.930;8.840;2023-05-21T01:50:33;15.00;;;11.75;;
15913;SDS011;8055;51.930;8.840;2023-05-21T01:52:59;15.00;;;11.70;;
15913;SDS011;8055;51.930;8.840;2023-05-21T01:55:27;12.77;;;10.23;;
15913;SDS011;8055;51.930;8.840;2023-05-21T01:57:54;14.68;;;11.30;;
15913;SDS011;8055;51.930;8.840;2023-05-21T02:00:20;15.55;;;12.30;;
15913;SDS011;8055;51.930;8.840;2023-05-21T02:02:46;11.80;;;10.52;;
15913;SDS011;8055;51.930;8.840;2023-05-21T02:05:12;17.58;;;11.82;;
15913;SDS011;8055;51.930;8.840;2023-05-21T02:07:38;16.90;;;12.38;;
15913;SDS011;8055;51.930;8.840;2023-05-21T02:10:04;12.18;;;10.88;;
15913;SDS011;8055;51.930;8.840;2023-05-21T02:12:30;20.35;;;11.82;;
15913;SDS011;8055;51.930;8.840;2023-05-21T02:14:55;13.23;;;10.73;;
15913;SDS011;8055;51.930;8.840;2023-05-21T02:17:21;16.00;;;12.30;;
15913;SDS011;8055;51.930;8.840;2023-05-21T02:19:48;12.15;;;10.88;;
15913;SDS011;8055;51.930;8.840;2023-05-21T02:22:14;13.45;;;11.95;;
15913;SDS011;8055;51.930;8.840;2023-05-21T02:24:39;15.50;;;11.70;;
15913;SDS011;8055;51.930;8.840;2023-05-21T02:27:05;15.82;;;12.15;;
15913;SDS011;8055;51.930;8.840;2023-05-21T02:29:31;17.67;;;12.27;;
15913;SDS011;8055;51.930;8.840;2023-05-21T02:31:56;14.85;;;11.88;;
15913;SDS011;8055;51.930;8.840;2023-05-21T02:34:22;16.15;;;11.60;;
15913;SDS011;8055;51.930;8.840;2023-05-21T02:36:49;14.23;;;11.48;;
15913;SDS011;8055;51.930;8.840;2023-05-21T02:39:17;14.98;;;11.98;;
15913;SDS011;8055;51.930;8.840;2023-05-21T02:41:44;15.18;;;11.70;;
15913;SDS011;8055;51.930;8.840;2023-05-21T02:44:10;13.98;;;11.40;;
15913;SDS011;8055;51.930;8.840;2023-05-21T02:46:35;13.05;;;10.45;;
15913;SDS011;8055;51.930;8.840;2023-05-21T02:49:01;14.00;;;11.48;;
15913;SDS011;8055;51.930;8.840;2023-05-21T02:51:26;14.55;;;12.38;;
15913;SDS011;8055;51.930;8.840;2023-05-21T02:53:52;11.45;;;10.25;;
15913;SDS011;8055;51.930;8.840;2023-05-21T02:56:17;14.82;;;11.15;;
15913;SDS011;8055;51.930;8.840;2023-05-21T02:58:43;13.45;;;11.35;;
15913;SDS011;8055;51.930;8.840;2023-05-21T03:01:09;16.15;;;12.60;;
15913;SDS011;8055;51.930;8.840;2023-05-21T03:03:35;20.02;;;12.60;;
15913;SDS011;8055;51.930;8.840;2023-05-21T03:06:00;15.18;;;12.27;;
15913;SDS011;8055;51.930;8.840;2023-05-21T03:08:25;16.17;;;12.35;;
15913;SDS011;8055;51.930;8.840;2023-05-21T03:10:51;15.05;;;11.95;;
15913;SDS011;8055;51.930;8.840;2023-05-21T03:13:16;14.20;;;12.43;;
15913;SDS011;8055;51.930;8.840;2023-05-21T03:15:41;14.57;;;12.45;;
15913;SDS011;8055;51.930;8.840;2023-05-21T03:18:08;16.70;;;13.02;;
15913;SDS011;8055;51.930;8.840;2023-05-21T03:20:34;16.85;;;13.52;;
15913;SDS011;8055;51.930;8.840;2023-05-21T03:22:59;17.98;;;12.98;;
15913;SDS011;8055;51.930;8.840;2023-05-21T03:25:28;18.52;;;13.82;;
15913;SDS011;8055;51.930;8.840;2023-05-21T03:27:54;16.35;;;13.73;;
15913;SDS011;8055;51.930;8.840;2023-05-21T03:30:19;18.45;;;13.45;;
15913;SDS011;8055;51.930;8.840;2023-05-21T03:32:45;19.02;;;14.18;;
15913;SDS011;8055;51.930;8.840;2023-05-21T03:35:11;17.13;;;13.73;;
15913;SDS011;8055;51.930;8.840;2023-05-21T03:37:37;17.73;;;13.88;;
15913;SDS011;8055;51.930;8.840;2023-05-21T03:40:02;20.73;;;13.95;;
15913;SDS011;8055;51.930;8.840;2023-05-21T03:42:28;18.42;;;14.32;;
15913;SDS011;8055;51.930;8.840;2023-05-21T03:44:54;18.65;;;13.77;;
15913;SDS011;8055;51.930;8.840;2023-05-21T03:47:19;16.65;;;13.35;;
15913;SDS011;8055;51.930;8.840;2023-05-21T03:49:45;17.48;;;13.98;;
15913;SDS011;8055;51.930;8.840;2023-05-21T03:52:10;18.02;;;13.15;;
15913;SDS011;8055;51.930;8.840;2023-05-21T03:54:36;15.35;;;12.10;;
15913;SDS011;8055;51.930;8.840;2023-05-21T03:57:01;16.92;;;13.38;;
15913;SDS011;8055;51.930;8.840;2023-05-21T03:59:27;18.25;;;13.13;;
15913;SDS011;8055;51.930;8.840;2023-05-21T04:01:52;16.80;;;13.45;;
15913;SDS011;8055;51.930;8.840;2023-05-21T04:04:17;19.10;;;13.70;;
15913;SDS011;8055;51.930;8.840;2023-05-21T04:06:43;16.42;;;13.23;;
15913;SDS011;8055;51.930;8.840;2023-05-21T04:09:08;15.43;;;13.00;;
15913;SDS011;8055;51.930;8.840;2023-05-21T04:11:33;16.73;;;13.10;;
15913;SDS011;8055;51.930;8.840;2023-05-21T04:13:59;14.70;;;12.48;;
15913;SDS011;8055;51.930;8.840;2023-05-21T04:16:25;18.73;;;13.50;;
15913;SDS011;8055;51.930;8.840;2023-05-21T04:18:50;15.32;;;12.52;;
15913;SDS011;8055;51.930;8.840;2023-05-21T04:21:16;14.25;;;12.73;;
15913;SDS011;8055;51.930;8.840;2023-05-21T04:23:41;17.13;;;12.77;;
15913;SDS011;8055;51.930;8.840;2023-05-21T04:26:07;18.10;;;13.00;;
15913;SDS011;8055;51.930;8.840;2023-05-21T04:28:32;18.15;;;13.30;;
15913;SDS011;8055;51.930;8.840;2023-05-21T04:30:59;20.77;;;13.55;;
15913;SDS011;8055;51.930;8.840;2023-05-21T04:33:25;14.90;;;12.55;;
15913;SDS011;8055;51.930;8.840;2023-05-21T04:35:50;17.45;;;13.10;;
15913;SDS011;8055;51.930;8.840;2023-05-21T04:38:16;16.17;;;12.57;;
15913;SDS011;8055;51.930;8.840;2023-05-21T04:40:48;16.42;;;12.65;;
15913;SDS011;8055;51.930;8.840;2023-05-21T04:43:20;18.58;;;12.20;;
15913;SDS011;8055;51.930;8.840;2023-05-21T04:45:55;18.98;;;12.75;;
15913;SDS011;8055;51.930;8.840;2023-05-21T04:48:21;17.42;;;12.80;;
15913;SDS011;8055;51.930;8.840;2023-05-21T04:50:50;15.52;;;12.98;;
15913;SDS011;8055;51.930;8.840;2023-05-21T04:53:17;16.15;;;12.40;;
15913;SDS011;8055;51.930;8.840;2023-05-21T04:55:42;14.25;;;12.15;;
15913;SDS011;8055;51.930;8.840;2023-05-21T04:58:08;15.73;;;12.48;;
15913;SDS011;8055;51.930;8.840;2023-05-21T05:00:36;17.50;;;11.90;;
15913;SDS011;8055;51.930;8.840;2023-05-21T05:03:02;16.83;;;12.20;;
15913;SDS011;8055;51.930;8.840;2023-05-21T05:05:28;16.92;;;12.05;;
15913;SDS011;8055;51.930;8.840;2023-05-21T05:07:53;16.10;;;12.27;;
15913;SDS011;8055;51.930;8.840;2023-05-21T05:10:19;15.18;;;12.68;;
15913;SDS011;8055;51.930;8.840;2023-05-21T05:12:44;16.75;;;11.63;;
15913;SDS011;8055;51.930;8.840;2023-05-21T05:15:10;15.48;;;12.30;;
15913;SDS011;8055;51.930;8.840;2023-05-21T05:17:35;17.13;;;13.05;;
15913;SDS011;8055;51.930;8.840;2023-05-21T05:20:00;15.77;;;13.02;;
15913;SDS011;8055;51.930;8.840;2023-05-21T05:22:26;14.70;;;11.88;;
15913;SDS011;8055;51.930;8.840;2023-05-21T05:24:51;13.85;;;12.25;;
15913;SDS011;8055;51.930;8.840;2023-05-21T05:27:16;18.60;;;13.52;;
15913;SDS011;8055;51.930;8.840;2023-05-21T05:29:45;16.95;;;12.43;;
15913;SDS011;8055;51.930;8.840;2023-05-21T05:32:11;15.73;;;12.32;;
15913;SDS011;8055;51.930;8.840;2023-05-21T05:34:37;15.30;;;12.18;;
15913;SDS011;8055;51.930;8.840;2023-05-21T05:37:02;14.35;;;12.30;;
15913;SDS011;8055;51.930;8.840;2023-05-21T05:39:28;14.70;;;12.65;;
15913;SDS011;8055;51.930;8.840;2023-05-21T05:41:53;20.27;;;13.13;;
15913;SDS011;8055;51.930;8.840;2023-05-21T05:44:19;14.65;;;12.75;;
15913;SDS011;8055;51.930;8.840;2023-05-21T05:46:44;15.13;;;11.98;;
15913;SDS011;8055;51.930;8.840;2023-05-21T05:49:09;15.95;;;11.27;;
15913;SDS011;8055;51.930;8.840;2023-05-21T05:51:35;17.45;;;12.75;;
15913;SDS011;8055;51.930;8.840;2023-05-21T05:54:01;16.38;;;12.88;;
15913;SDS011;8055;51.930;8.840;2023-05-21T05:56:26;14.80;;;12.27;;
15913;SDS011;8055;51.930;8.840;2023-05-21T05:58:52;20.08;;;14.05;;
15913;SDS011;8055;51.930;8.840;2023-05-21T06:01:17;16.88;;;13.20;;
15913;SDS011;8055;51.930;8.840;2023-05-21T06:03:43;16.40;;;13.27;;
15913;SDS011;8055;51.930;8.840;2023-05-21T06:06:08;15.43;;;12.80;;
15913;SDS011;8055;51.930;8.840;2023-05-21T06:08:35;20.88;;;13.68;;
15913;SDS011;8055;51.930;8.840;2023-05-21T06:11:00;18.23;;;13.13;;
15913;SDS011;8055;51.930;8.840;2023-05-21T06:13:26;15.27;;;13.68;;
15913;SDS011;8055;51.930;8.840;2023-05-21T06:15:52;16.05;;;13.27;;
15913;SDS011;8055;51.930;8.840;2023-05-21T06:18:17;20.35;;;13.80;;
15913;SDS011;8055;51.930;8.840;2023-05-21T06:20:43;15.93;;;13.40;;
15913;SDS011;8055;51.930;8.840;2023-05-21T06:23:09;16.63;;;13.10;;
15913;SDS011;8055;51.930;8.840;2023-05-21T06:25:34;18.75;;;14.52;;
15913;SDS011;8055;51.930;8.840;2023-05-21T06:27:59;17.92;;;13.38;;
15913;SDS011;8055;51.930;8.840;2023-05-21T06:30:25;18.42;;;14.68;;
15913;SDS011;8055;51.930;8.840;2023-05-21T06:32:50;16.83;;;13.32;;
15913;SDS011;8055;51.930;8.840;2023-05-21T06:35:15;17.13;;;13.38;;
15913;SDS011;8055;51.930;8.840;2023-05-21T06:37:41;16.10;;;13.50;;
15913;SDS011;8055;51.930;8.840;2023-05-21T06:40:07;15.93;;;13.82;;
15913;SDS011;8055;51.930;8.840;2023-05-21T06:42:33;15.50;;;13.48;;
15913;SDS011;8055;51.930;8.840;2023-05-21T06:45:00;15.02;;;13.10;;
15913;SDS011;8055;51.930;8.840;2023-05-21T06:47:25;15.32;;;13.23;;
15913;SDS011;8055;51.930;8.840;2023-05-21T06:49:51;18.98;;;12.90;;
15913;SDS011;8055;51.930;8.840;2023-05-21T06:52:16;17.38;;;12.80;;
15913;SDS011;8055;51.930;8.840;2023-05-21T06:54:42;13.88;;;11.73;;
15913;SDS011;8055;51.930;8.840;2023-05-21T06:57:07;16.08;;;12.07;;
15913;SDS011;8055;51.930;8.840;2023-05-21T06:59:32;18.33;;;14.32;;
15913;SDS011;8055;51.930;8.840;2023-05-21T07:01:58;14.60;;;12.77;;
15913;SDS011;8055;51.930;8.840;2023-05-21T07:04:23;17.85;;;13.63;;
15913;SDS011;8055;51.930;8.840;2023-05-21T07:06:49;15.98;;;12.60;;
15913;SDS011;8055;51.930;8.840;2023-05-21T07:09:16;13.38;;;11.40;;
15913;SDS011;8055;51.930;8.840;2023-05-21T07:11:42;16.40;;;13.55;;
15913;SDS011;8055;51.930;8.840;2023-05-21T07:14:08;17.08;;;14.13;;
15913;SDS011;8055;51.930;8.840;2023-05-21T07:16:33;16.73;;;13.48;;
15913;SDS011;8055;51.930;8.840;2023-05-21T07:18:59;16.98;;;13.88;;
15913;SDS011;8055;51.930;8.840;2023-05-21T07:21:24;18.42;;;13.40;;
15913;SDS011;8055;51.930;8.840;2023-05-21T07:23:49;16.27;;;12.60;;
15913;SDS011;8055;51.930;8.840;2023-05-21T07:26:15;16.63;;;12.65;;
15913;SDS011;8055;51.930;8.840;2023-05-21T07:28:40;15.15;;;12.27;;
15913;SDS011;8055;51.930;8.840;2023-05-21T07:31:06;17.48;;;13.10;;
15913;SDS011;8055;51.930;8.840;2023-05-21T07:33:32;15.77;;;12.73;;
15913;SDS011;8055;51.930;8.840;2023-05-21T07:35:58;16.98;;;11.95;;
15913;SDS011;8055;51.930;8.840;2023-05-21T07:38:23;18.25;;;14.05;;
15913;SDS011;8055;51.930;8.840;2023-05-21T07:40:48;15.73;;;13.15;;
15913;SDS011;8055;51.930;8.840;2023-05-21T07:43:14;16.25;;;13.70;;
15913;SDS011;8055;51.930;8.840;2023-05-21T07:45:39;16.90;;;13.85;;
15913;SDS011;8055;51.930;8.840;2023-05-21T07:48:05;17.95;;;13.93;;
15913;SDS011;8055;51.930;8.840;2023-05-21T07:50:30;16.10;;;13.57;;
15913;SDS011;8055;51.930;8.840;2023-05-21T07:52:56;19.13;;;14.00;;
15913;SDS011;8055;51.930;8.840;2023-05-21T07:55:21;16.20;;;13.23;;
15913;SDS011;8055;51.930;8.840;2023-05-21T07:57:46;14.68;;;12.27;;
15913;SDS011;8055;51.930;8.840;2023-05-21T08:00:12;21.95;;;15.43;;
15913;SDS011;8055;51.930;8.840;2023-05-21T08:02:38;18.10;;;14.20;;
15913;SDS011;8055;51.930;8.840;2023-05-21T08:05:04;17.73;;;14.80;;
15913;SDS011;8055;51.930;8.840;2023-05-21T08:07:30;16.48;;;13.63;;
15913;SDS011;8055;51.930;8.840;2023-05-21T08:09:56;17.60;;;13.50;;
15913;SDS011;8055;51.930;8.840;2023-05-21T08:12:22;18.05;;;13.90;;
15913;SDS011;8055;51.930;8.840;2023-05-21T08:14:48;16.10;;;12.65;;
15913;SDS011;8055;51.930;8.840;2023-05-21T08:17:13;20.88;;;13.43;;
15913;SDS011;8055;51.930;8.840;2023-05-21T08:19:39;15.20;;;13.00;;
15913;SDS011;8055;51.930;8.840;2023-05-21T08:22:04;19.15;;;13.90;;
15913;SDS011;8055;51.930;8.840;2023-05-21T08:24:32;18.52;;;15.00;;
15913;SDS011;8055;51.930;8.840;2023-05-21T08:26:58;15.88;;;13.98;;
15913;SDS011;8055;51.930;8.840;2023-05-21T08:29:24;19.83;;;14.50;;
15913;SDS011;8055;51.930;8.840;2023-05-21T08:31:49;14.77;;;13.20;;
15913;SDS011;8055;51.930;8.840;2023-05-21T08:34:15;17.20;;;14.70;;
15913;SDS011;8055;51.930;8.840;2023-05-21T08:36:40;16.98;;;13.75;;
15913;SDS011;8055;51.930;8.840;2023-05-21T08:39:07;17.83;;;13.98;;
15913;SDS011;8055;51.930;8.840;2023-05-21T08:41:33;17.73;;;14.15;;
15913;SDS011;8055;51.930;8.840;2023-05-21T08:44:01;17.15;;;13.13;;
15913;SDS011;8055;51.930;8.840;2023-05-21T08:46:28;17.17;;;14.80;;
15913;SDS011;8055;51.930;8.840;2023-05-21T08:48:58;16.33;;;13.13;;
15913;SDS011;8055;51.930;8.840;2023-05-21T08:51:27;16.98;;;14.02;;
15913;SDS011;8055;51.930;8.840;2023-05-21T08:53:53;18.70;;;13.25;;
15913;SDS011;8055;51.930;8.840;2023-05-21T08:56:20;18.15;;;13.43;;
15913;SDS011;8055;51.930;8.840;2023-05-21T08:58:46;17.60;;;14.10;;
15913;SDS011;8055;51.930;8.840;2023-05-21T09:01:12;17.45;;;13.43;;
15913;SDS011;8055;51.930;8.840;2023-05-21T09:03:38;16.08;;;13.98;;
15913;SDS011;8055;51.930;8.840;2023-05-21T09:06:13;19.02;;;14.27;;
15913;SDS011;8055;51.930;8.840;2023-05-21T09:08:43;15.77;;;13.82;;
15913;SDS011;8055;51.930;8.840;2023-05-21T09:11:10;20.42;;;14.82;;
15913;SDS011;8055;51.930;8.840;2023-05-21T09:13:36;18.60;;;14.02;;
15913;SDS011;8055;51.930;8.840;2023-05-21T09:16:02;14.88;;;12.77;;
15913;SDS011;8055;51.930;8.840;2023-05-21T09:18:28;19.38;;;14.70;;
15913;SDS011;8055;51.930;8.840;2023-05-21T09:20:54;13.50;;;12.00;;
15913;SDS011;8055;51.930;8.840;2023-05-21T09:23:20;15.80;;;13.27;;
15913;SDS011;8055;51.930;8.840;2023-05-21T09:25:46;19.10;;;14.57;;
15913;SDS011;8055;51.930;8.840;2023-05-21T09:28:13;17.63;;;13.13;;
15913;SDS011;8055;51.930;8.840;2023-05-21T09:30:46;17.75;;;15.27;;
15913;SDS011;8055;51.930;8.840;2023-05-21T09:33:12;18.27;;;14.93;;
15913;SDS011;8055;51.930;8.840;2023-05-21T09:35:48;16.50;;;12.73;;
15913;SDS011;8055;51.930;8.840;2023-05-21T09:38:14;18.15;;;13.80;;
15913;SDS011;8055;51.930;8.840;2023-05-21T09:40:43;17.48;;;14.02;;
15913;SDS011;8055;51.930;8.840;2023-05-21T09:43:12;18.20;;;14.38;;
15913;SDS011;8055;51.930;8.840;2023-05-21T09:45:51;18.40;;;14.25;;
15913;SDS011;8055;51.930;8.840;2023-05-21T09:51:17;18.73;;;15.32;;
15913;SDS011;8055;51.930;8.840;2023-05-21T09:53:48;17.00;;;13.45;;
15913;SDS011;8055;51.930;8.840;2023-05-21T09:56:16;14.73;;;12.27;;
15913;SDS011;8055;51.930;8.840;2023-05-21T09:58:46;16.65;;;13.32;;
15913;SDS011;8055;51.930;8.840;2023-05-21T10:01:12;18.45;;;14.15;;
15913;SDS011;8055;51.930;8.840;2023-05-21T10:03:38;14.40;;;12.55;;
15913;SDS011;8055;51.930;8.840;2023-05-21T10:06:07;14.82;;;12.50;;
15913;SDS011;8055;51.930;8.840;2023-05-21T10:08:34;14.68;;;12.63;;
15913;SDS011;8055;51.930;8.840;2023-05-21T10:11:02;18.30;;;13.32;;
15913;SDS011;8055;51.930;8.840;2023-05-21T10:13:29;14.43;;;11.68;;
15913;SDS011;8055;51.930;8.840;2023-05-21T10:15:58;16.08;;;13.45;;
15913;SDS011;8055;51.930;8.840;2023-05-21T10:18:27;18.17;;;13.32;;
15913;SDS011;8055;51.930;8.840;2023-05-21T10:20:54;16.02;;;12.15;;
15913;SDS011;8055;51.930;8.840;2023-05-21T10:23:21;13.43;;;12.02;;
15913;SDS011;8055;51.930;8.840;2023-05-21T10:25:47;16.25;;;13.25;;
15913;SDS011;8055;51.930;8.840;2023-05-21T10:28:15;14.85;;;12.07;;
15913;SDS011;8055;51.930;8.840;2023-05-21T10:30:42;14.75;;;12.15;;
15913;SDS011;8055;51.930;8.840;2023-05-21T10:33:08;15.38;;;12.80;;
15913;SDS011;8055;51.930;8.840;2023-05-21T10:35:36;15.68;;;12.63;;
15913;SDS011;8055;51.930;8.840;2023-05-21T10:38:04;17.38;;;12.48;;
15913;SDS011;8055;51.930;8.840;2023-05-21T10:40:30;14.20;;;12.18;;
15913;SDS011;8055;51.930;8.840;2023-05-21T10:45:45;14.38;;;12.88;;
15913;SDS011;8055;51.930;8.840;2023-05-21T10:56:38;17.10;;;13.05;;
15913;SDS011;8055;51.930;8.840;2023-05-21T10:59:32;15.15;;;12.75;;
15913;SDS011;8055;51.930;8.840;2023-05-21T11:02:04;14.05;;;12.23;;
15913;SDS011;8055;51.930;8.840;2023-05-21T11:04:31;14.23;;;12.05;;
15913;SDS011;8055;51.930;8.840;2023-05-21T11:06:57;13.50;;;12.02;;
15913;SDS011;8055;51.930;8.840;2023-05-21T11:09:23;15.05;;;12.05;;
15913;SDS011;8055;51.930;8.840;2023-05-21T11:11:49;13.50;;;12.15;;
15913;SDS011;8055;51.930;8.840;2023-05-21T11:17:03;14.33;;;12.83;;
15913;SDS011;8055;51.930;8.840;2023-05-21T11:19:36;13.88;;;12.15;;
15913;SDS011;8055;51.930;8.840;2023-05-21T11:24:44;19.17;;;13.63;;
15913;SDS011;8055;51.930;8.840;2023-05-21T11:27:09;15.32;;;12.95;;
15913;SDS011;8055;51.930;8.840;2023-05-21T11:29:37;16.85;;;12.68;;
15913;SDS011;8055;51.930;8.840;2023-05-21T11:32:05;13.95;;;12.50;;
15913;SDS011;8055;51.930;8.840;2023-05-21T11:39:57;14.13;;;12.68;;
15913;SDS011;8055;51.930;8.840;2023-05-21T11:42:40;16.13;;;14.23;;
15913;SDS011;8055;51.930;8.840;2023-05-21T11:45:08;15.23;;;13.20;;
15913;SDS011;8055;51.930;8.840;2023-05-21T11:47:33;15.50;;;13.15;;
15913;SDS011;8055;51.930;8.840;2023-05-21T11:50:00;14.35;;;12.88;;
15913;SDS011;8055;51.930;8.840;2023-05-21T11:52:29;14.63;;;13.15;;
15913;SDS011;8055;51.930;8.840;2023-05-21T11:54:55;17.38;;;14.05;;
15913;SDS011;8055;51.930;8.840;2023-05-21T11:57:26;14.73;;;13.18;;
15913;SDS011;8055;51.930;8.840;2023-05-21T11:59:56;16.10;;;13.57;;
15913;SDS011;8055;51.930;8.840;2023-05-21T12:02:25;15.75;;;13.45;;
15913;SDS011;8055;51.930;8.840;2023-05-21T12:04:56;17.17;;;14.15;;
15913;SDS011;8055;51.930;8.840;2023-05-21T12:07:25;14.38;;;12.98;;
15913;SDS011;8055;51.930;8.840;2023-05-21T12:09:54;15.55;;;13.82;;
15913;SDS011;8055;51.930;8.840;2023-05-21T12:12:20;19.77;;;14.25;;
15913;SDS011;8055;51.930;8.840;2023-05-21T12:14:47;15.05;;;13.45;;
15913;SDS011;8055;51.930;8.840;2023-05-21T12:17:18;15.10;;;13.50;;
15913;SDS011;8055;51.930;8.840;2023-05-21T12:19:45;15.95;;;13.68;;
15913;SDS011;8055;51.930;8.840;2023-05-21T12:22:11;15.05;;;13.13;;
15913;SDS011;8055;51.930;8.840;2023-05-21T12:24:37;16.38;;;14.35;;
15913;SDS011;8055;51.930;8.840;2023-05-21T12:27:03;14.93;;;13.40;;
15913;SDS011;8055;51.930;8.840;2023-05-21T12:29:34;20.45;;;13.85;;
15913;SDS011;8055;51.930;8.840;2023-05-21T12:32:05;16.00;;;14.17;;
15913;SDS011;8055;51.930;8.840;2023-05-21T12:34:40;15.38;;;13.80;;
15913;SDS011;8055;51.930;8.840;2023-05-21T12:37:25;17.85;;;14.48;;
15913;SDS011;8055;51.930;8.840;2023-05-21T12:39:52;15.95;;;13.90;;
15913;SDS011;8055;51.930;8.840;2023-05-21T12:42:28;14.98;;;13.18;;
15913;SDS011;8055;51.930;8.840;2023-05-21T12:44:55;15.32;;;13.10;;
15913;SDS011;8055;51.930;8.840;2023-05-21T12:47:25;17.83;;;13.85;;
15913;SDS011;8055;51.930;8.840;2023-05-21T12:49:57;18.77;;;15.82;;
15913;SDS011;8055;51.930;8.840;2023-05-21T12:52:24;15.65;;;14.05;;
15913;SDS011;8055;51.930;8.840;2023-05-21T12:54:51;16.67;;;14.85;;
15913;SDS011;8055;51.930;8.840;2023-05-21T12:57:18;20.83;;;13.82;;
15913;SDS011;8055;51.930;8.840;2023-05-21T13:00:04;17.75;;;15.50;;
15913;SDS011;8055;51.930;8.840;2023-05-21T13:02:31;18.80;;;15.70;;
15913;SDS011;8055;51.930;8.840;2023-05-21T13:05:07;17.70;;;15.90;;
15913;SDS011;8055;51.930;8.840;2023-05-21T13:07:36;19.20;;;16.20;;
15913;SDS011;8055;51.930;8.840;2023-05-21T13:10:02;21.25;;;17.73;;
15913;SDS011;8055;51.930;8.840;2023-05-21T13:12:29;20.17;;;16.65;;
15913;SDS011;8055;51.930;8.840;2023-05-21T13:14:57;19.95;;;17.13;;
15913;SDS011;8055;51.930;8.840;2023-05-21T13:17:24;19.95;;;17.27;;
15913;SDS011;8055;51.930;8.840;2023-05-21T13:22:31;18.80;;;16.45;;
15913;SDS011;8055;51.930;8.840;2023-05-21T13:24:57;20.45;;;17.30;;
15913;SDS011;8055;51.930;8.840;2023-05-21T13:27:23;19.77;;;17.60;;
15913;SDS011;8055;51.930;8.840;2023-05-21T13:29:48;19.88;;;17.80;;
15913;SDS011;8055;51.930;8.840;2023-05-21T13:32:13;20.98;;;18.58;;
15913;SDS011;8055;51.930;8.840;2023-05-21T13:34:39;20.55;;;18.27;;
15913;SDS011;8055;51.930;8.840;2023-05-21T13:37:04;20.42;;;17.25;;
15913;SDS011;8055;51.930;8.840;2023-05-21T13:39:30;20.02;;;17.92;;
15913;SDS011;8055;51.930;8.840;2023-05-21T13:41:55;20.35;;;18.25;;
15913;SDS011;8055;51.930;8.840;2023-05-21T13:44:21;19.50;;;17.42;;
15913;SDS011;8055;51.930;8.840;2023-05-21T13:46:46;19.88;;;17.60;;
15913;SDS011;8055;51.930;8.840;2023-05-21T13:49:11;19.60;;;17.45;;
15913;SDS011;8055;51.930;8.840;2023-05-21T13:51:37;21.48;;;17.30;;
15913;SDS011;8055;51.930;8.840;2023-05-21T13:54:02;21.38;;;19.17;;
15913;SDS011;8055;51.930;8.840;2023-05-21T13:56:28;22.23;;;18.67;;
15913;SDS011;8055;51.930;8.840;2023-05-21T13:58:53;23.92;;;19.52;;
15913;SDS011;8055;51.930;8.840;2023-05-21T14:01:18;19.65;;;17.55;;
15913;SDS011;8055;51.930;8.840;2023-05-21T14:03:44;20.90;;;18.70;;
15913;SDS011;8055;51.930;8.840;2023-05-21T14:06:09;21.50;;;18.52;;
15913;SDS011;8055;51.930;8.840;2023-05-21T14:08:35;21.05;;;18.77;;
15913;SDS011;8055;51.930;8.840;2023-05-21T14:11:00;20.52;;;18.38;;
15913;SDS011;8055;51.930;8.840;2023-05-21T14:13:26;22.35;;;17.92;;
15913;SDS011;8055;51.930;8.840;2023-05-21T14:15:51;21.80;;;19.50;;
15913;SDS011;8055;51.930;8.840;2023-05-21T14:18:17;21.60;;;19.08;;
15913;SDS011;8055;51.930;8.840;2023-05-21T14:20:42;22.65;;;19.75;;
15913;SDS011;8055;51.930;8.840;2023-05-21T14:23:08;25.52;;;19.42;;
15913;SDS011;8055;51.930;8.840;2023-05-21T14:25:33;20.27;;;18.00;;
15913;SDS011;8055;51.930;8.840;2023-05-21T14:27:59;28.48;;;23.33;;
15913;SDS011;8055;51.930;8.840;2023-05-21T14:30:25;20.75;;;18.40;;
15913;SDS011;8055;51.930;8.840;2023-05-21T14:32:50;22.13;;;18.80;;
15913;SDS011;8055;51.930;8.840;2023-05-21T14:35:15;19.75;;;17.75;;
15913;SDS011;8055;51.930;8.840;2023-05-21T14:37:41;21.23;;;17.75;;
15913;SDS011;8055;51.930;8.840;2023-05-21T14:40:06;19.27;;;17.27;;
15913;SDS011;8055;51.930;8.840;2023-05-21T14:42:33;22.88;;;18.00;;
15913;SDS011;8055;51.930;8.840;2023-05-21T14:44:59;22.83;;;17.67;;
15913;SDS011;8055;51.930;8.840;2023-05-21T14:47:24;20.83;;;18.52;;
15913;SDS011;8055;51.930;8.840;2023-05-21T14:49:50;18.35;;;16.55;;
15913;SDS011;8055;51.930;8.840;2023-05-21T14:52:15;20.42;;;17.65;;
15913;SDS011;8055;51.930;8.840;2023-05-21T14:54:40;19.10;;;17.13;;
15913;SDS011;8055;51.930;8.840;2023-05-21T14:57:06;19.52;;;17.50;;
15913;SDS011;8055;51.930;8.840;2023-05-21T14:59:31;21.95;;;17.17;;
15913;SDS011;8055;51.930;8.840;2023-05-21T15:01:56;21.08;;;17.45;;